Weather reports worldwide

Advertisment
St.Catherine`s Point, United Kingdom (3866): temperature & dewpoint: 09.09.2019 09:00:00 - 15.09.2019 09:00:00 (BST)St.Catherine`s Point, United Kingdom (3866): wind speed & gusts: 09.09.2019 09:00:00 - 15.09.2019 09:00:00 (BST)St.Catherine`s Point, United Kingdom (3866): wind direction: 09.09.2019 09:00:00 - 15.09.2019 09:00:00 (BST)St.Catherine`s Point, United Kingdom (3866): reduced air pressure: 09.09.2019 09:00:00 - 15.09.2019 09:00:00 (BST)St.Catherine`s Point, United Kingdom (3866): precipitation: 09.09.2019 09:00:00 - 15.09.2019 09:00:00 (BST)
Date & Time tt [°C] td [°C] ff [km/h] ff [kn] fx [km/h] fx [kn] dd ppp [hPa] rr [mm]
15.09.2019 09:00:00 15,6 12,0 11 6 - - WNW 1025,9 0,0
15.09.2019 08:00:00 15,7 11,1 21 11 - - N 1025,5 0,0
15.09.2019 07:00:00 14,4 9,3 9 5 - - NW 1025,6 0,0
15.09.2019 06:00:00 14,9 9,4 13 7 - - WNW 1025,7 0,0
15.09.2019 05:00:00 14,8 9,6 4 2 - - WNW 1025,8 0,0
15.09.2019 04:00:00 14,4 9,2 4 2 - - NNW 1026,3 0,0
15.09.2019 03:00:00 13,2 9,5 2 1 - - NNW 1026,6 0,0
15.09.2019 02:00:00 14,7 9,3 5 3 - - NNW 1027,1 0,0
15.09.2019 01:00:00 14,8 8,8 5 3 - - N 1027,2 0,0
15.09.2019 00:00:00 14,1 9,5 4 2 - - NNW 1027,4 0,0
14.09.2019 23:00:00 15,4 8,9 8 4 - - N 1027,9 0,0
14.09.2019 22:00:00 15,7 8,3 9 5 - - NNE 1028,3 0,0
14.09.2019 21:00:00 14,3 7,6 4 2 - - N 1028,8 0,0
14.09.2019 20:00:00 14,8 10,6 8 4 - - NE 1028,7 0,0
14.09.2019 19:00:00 16,2 12,0 5 3 - - E 1028,8 0,0
14.09.2019 18:00:00 17,8 12,7 8 4 - - ESE 1028,9 0,0
14.09.2019 17:00:00 18,7 12,9 9 5 - - ESE 1029,6 0,0
14.09.2019 16:00:00 19,2 14,0 18 10 - - E 1029,9 0,0
14.09.2019 15:00:00 19,5 14,2 18 10 - - E 1030,6 0,0
14.09.2019 14:00:00 19,7 14,4 18 10 - - E 1031,2 0,0
14.09.2019 13:00:00 19,6 14,5 16 9 - - E 1032,1 0,0
14.09.2019 12:00:00 19,0 14,3 18 10 - - E 1032,6 0,0
14.09.2019 11:00:00 18,1 13,9 22 12 - - E 1032,7 0,0
14.09.2019 10:00:00 17,7 13,4 21 11 - - E 1033,1 0,0
14.09.2019 09:00:00 15,5 13,4 13 7 - - NE 1033,3 0,0
14.09.2019 08:00:00 13,7 12,2 16 9 - - NE 1033,1 0,0
14.09.2019 07:00:00 13,1 11,8 18 10 - - ENE 1033,2 0,0
14.09.2019 06:00:00 12,4 11,1 18 10 - - NE 1033,5 0,0
14.09.2019 05:00:00 12,5 11,2 21 11 - - ENE 1033,4 0,0
14.09.2019 04:00:00 12,6 11,1 16 9 - - NE 1034,1 0,0
14.09.2019 03:00:00 13,1 11,7 15 8 - - NE 1034,3 0,0
14.09.2019 02:00:00 13,8 11,6 16 9 - - ENE 1034,2 0,0
14.09.2019 01:00:00 14,8 12,7 18 10 - - E 1034,5 0,0
14.09.2019 00:00:00 15,4 13,2 16 9 - - ENE 1034,7 0,0
13.09.2019 23:00:00 14,5 13,1 13 7 - - ENE 1034,9 0,0
13.09.2019 22:00:00 15,0 13,6 13 7 - - ENE 1034,8 0,0
13.09.2019 21:00:00 15,0 13,4 11 6 - - ENE 1034,7 0,0
13.09.2019 20:00:00 15,0 12,0 8 4 - - ENE 1034,4 0,0
13.09.2019 19:00:00 16,5 12,0 5 3 - - ENE 1033,9 0,0
13.09.2019 18:00:00 19,1 13,1 8 4 - - E 1033,7 0,0
13.09.2019 17:00:00 19,4 13,2 13 7 - - E 1033,8 0,0
13.09.2019 16:00:00 19,9 13,9 15 8 - - E 1033,9 0,0
13.09.2019 15:00:00 19,9 12,6 16 9 - - ESE 1034,2 0,0
13.09.2019 14:00:00 20,0 13,0 18 10 - - E 1034,2 0,0
13.09.2019 13:00:00 20,6 13,5 11 6 - - ENE 1034,2 0,0
13.09.2019 12:00:00 17,9 11,3 13 7 - - ENE 1034,4 0,0
13.09.2019 11:00:00 16,2 10,8 18 10 - - NNE 1034,3 0,0
13.09.2019 10:00:00 14,9 10,6 22 12 - - NNE 1034,0 0,0
13.09.2019 09:00:00 14,5 11,1 22 12 - - NNE 1033,1 0,0
13.09.2019 08:00:00 14,5 10,7 28 15 - - NNE 1032,3 0,0
13.09.2019 07:00:00 14,5 13,0 24 13 - - NNE 1032,0 0,8
13.09.2019 06:00:00 17,0 16,5 9 5 - - WNW 1031,5 0,4
13.09.2019 05:00:00 17,2 16,6 15 8 - - W 1031,0 0,0
13.09.2019 04:00:00 17,2 16,7 16 9 - - W 1030,7 0,0
13.09.2019 03:00:00 17,2 16,6 21 11 - - W 1030,6 0,0
13.09.2019 02:00:00 17,3 16,5 22 12 - - W 1030,5 0,0
13.09.2019 01:00:00 17,3 16,3 26 14 - - W 1030,4 0,0
13.09.2019 00:00:00 17,3 16,0 28 15 - - W 1030,3 0,0
12.09.2019 23:00:00 17,3 15,9 29 16 - - W 1030,3 0,0
12.09.2019 22:00:00 17,2 15,6 34 18 46 25 W 1030,3 0,0
12.09.2019 21:00:00 17,2 15,6 34 18 50 27 W 1029,9 0,0
12.09.2019 20:00:00 17,4 15,7 39 21 52 28 W 1029,5 0,0
12.09.2019 19:00:00 17,5 15,8 37 20 52 28 W 1029,6 0,0
12.09.2019 18:00:00 17,8 15,6 46 25 55 30 WSW 1029,3 0,0
12.09.2019 17:00:00 17,8 16,1 39 21 54 29 WSW 1029,2 0,0
12.09.2019 16:00:00 18,0 15,9 44 24 52 28 WSW 1029,2 0,0
12.09.2019 15:00:00 17,7 16,4 41 22 55 30 WSW 1029,4 0,0
12.09.2019 14:00:00 17,9 16,5 39 21 50 27 WSW 1029,3 0,0
12.09.2019 13:00:00 17,7 16,1 35 19 - - WSW 1029,3 0,0
12.09.2019 12:00:00 18,5 16,5 34 18 46 25 W 1029,3 0,0
12.09.2019 11:00:00 17,4 16,6 37 20 - - WSW 1029,1 0,0
12.09.2019 10:00:00 17,5 16,7 29 16 - - W 1028,6 0,0
12.09.2019 09:00:00 17,2 16,5 31 17 - - W 1028,1 0,0
12.09.2019 08:00:00 17,3 16,7 29 16 - - W 1027,6 0,0
12.09.2019 07:00:00 17,1 16,7 28 15 - - W 1027,0 0,2
12.09.2019 06:00:00 17,2 16,5 29 16 - - W 1026,4 0,0
12.09.2019 05:00:00 17,2 14,9 21 11 - - W 1026,2 0,0
12.09.2019 04:00:00 17,0 14,0 24 13 - - W 1025,9 0,0
12.09.2019 03:00:00 17,0 14,2 24 13 - - W 1025,7 0,0
12.09.2019 02:00:00 17,1 14,4 24 13 - - W 1025,6 0,0
12.09.2019 01:00:00 17,2 16,3 24 13 - - W 1025,1 0,0
12.09.2019 00:00:00 17,3 16,6 29 16 - - W 1024,7 0,0
11.09.2019 23:00:00 17,1 16,6 35 19 - - W 1024,4 0,0
11.09.2019 22:00:00 17,4 16,8 31 17 50 27 W 1024,1 0,0
11.09.2019 21:00:00 17,4 16,8 35 19 48 26 W 1023,7 0,0
11.09.2019 20:00:00 17,5 16,8 35 19 55 30 W 1023,2 0,0
11.09.2019 19:00:00 17,6 16,7 41 22 55 30 W 1022,3 0,0
11.09.2019 18:00:00 17,6 16,7 41 22 55 30 W 1022,1 0,0
11.09.2019 17:00:00 17,7 16,7 44 24 59 32 W 1021,9 0,0
11.09.2019 16:00:00 17,6 16,5 46 25 59 32 WSW 1021,7 0,0
11.09.2019 15:00:00 17,5 16,4 46 25 57 31 WSW 1021,7 0,0
11.09.2019 14:00:00 17,4 16,2 42 23 54 29 WSW 1021,7 0,0
11.09.2019 13:00:00 17,5 16,3 44 24 55 30 WSW 1021,8 0,0
11.09.2019 12:00:00 17,2 16,1 46 25 59 32 WSW 1021,4 0,0
11.09.2019 11:00:00 17,1 16,0 42 23 59 32 W 1021,1 0,0
11.09.2019 10:00:00 16,9 15,7 46 25 61 33 W 1020,9 0,0
11.09.2019 09:00:00 16,6 15,0 44 24 61 33 W 1020,8 0,0
11.09.2019 08:00:00 16,3 14,3 42 23 54 29 W 1020,6 0,0
11.09.2019 07:00:00 16,1 13,8 39 21 46 25 W 1020,6 0,0
11.09.2019 06:00:00 16,0 12,9 35 19 46 25 W 1020,5 0,0
11.09.2019 05:00:00 15,5 11,8 37 20 46 25 W 1020,6 0,0
11.09.2019 04:00:00 15,2 11,0 31 17 - - W 1021,1 0,0
11.09.2019 03:00:00 15,2 10,7 28 15 - - W 1021,4 0,0
11.09.2019 02:00:00 14,9 8,6 28 15 - - W 1021,9 0,0
11.09.2019 01:00:00 14,9 9,0 18 10 - - W 1021,4 0,0
11.09.2019 00:00:00 14,3 10,0 16 9 - - NW 1021,8 0,0
10.09.2019 23:00:00 14,5 9,2 11 6 - - NW 1021,9 0,0
10.09.2019 22:00:00 15,0 10,6 9 5 - - NW 1021,6 0,0
10.09.2019 21:00:00 16,4 13,5 22 12 - - W 1021,4 0,0
10.09.2019 20:00:00 16,6 13,1 22 12 - - W 1021,0 0,0
10.09.2019 19:00:00 16,9 13,6 22 12 - - W 1020,6 0,0
10.09.2019 18:00:00 16,7 13,7 22 12 - - W 1020,4 0,0
10.09.2019 17:00:00 16,9 13,2 22 12 - - W 1020,6 0,0
10.09.2019 16:00:00 17,6 13,3 21 11 - - W 1020,5 0,0
10.09.2019 15:00:00 17,2 12,9 18 10 - - W 1020,4 0,0
10.09.2019 14:00:00 17,4 13,4 16 9 - - W 1020,3 0,0
10.09.2019 13:00:00 16,7 13,5 16 9 - - WNW 1020,0 0,0
10.09.2019 12:00:00 17,2 11,4 9 5 - - NNW 1020,2 0,0
10.09.2019 11:00:00 15,9 12,2 13 7 - - NNE 1019,8 0,0
10.09.2019 10:00:00 13,1 11,5 24 13 - - N 1019,2 0,0
10.09.2019 09:00:00 13,8 13,1 16 9 - - N 1018,5 0,0
10.09.2019 08:00:00 12,2 12,0 18 10 - - NNE 1017,8 0,0
10.09.2019 07:00:00 12,4 11,3 18 10 - - NNE 1016,8 0,0
10.09.2019 06:00:00 13,7 11,6 4 2 - - NNE 1016,0 0,0
10.09.2019 05:00:00 13,2 12,0 9 5 - - N 1015,4 0,0
10.09.2019 04:00:00 13,3 12,4 13 7 - - N 1015,2 0,0
10.09.2019 03:00:00 13,5 12,7 15 8 - - NNE 1014,7 0,0
10.09.2019 02:00:00 13,5 12,6 13 7 - - NNE 1014,4 0,0
10.09.2019 01:00:00 13,6 12,8 15 8 - - NNE 1013,8 0,0
10.09.2019 00:00:00 13,5 12,3 15 8 - - NNE 1013,1 0,0
09.09.2019 23:00:00 13,6 12,0 9 5 - - NNE 1012,5 0,0
09.09.2019 22:00:00 15,0 11,8 5 3 - - SSE 1012,1 0,0
09.09.2019 21:00:00 14,8 12,1 9 5 - - S 1011,5 0,2
09.09.2019 20:00:00 14,5 13,4 13 7 - - S 1010,7 4,6
09.09.2019 19:00:00 14,5 12,3 15 8 - - SSW 1010,3 0,0
09.09.2019 18:00:00 14,5 12,5 21 11 - - SW 1010,0 0,0
09.09.2019 17:00:00 15,6 12,0 21 11 - - SSW 1009,7 0,0
09.09.2019 16:00:00 15,4 11,4 18 10 - - SW 1010,0 0,0
09.09.2019 15:00:00 14,2 12,4 15 8 - - SW 1010,4 1,2
09.09.2019 14:00:00 14,0 11,8 15 8 - - S 1011,0 0,2
09.09.2019 13:00:00 13,9 12,4 15 8 - - S 1011,5 0,8
09.09.2019 12:00:00 13,6 12,1 18 10 - - SSW 1012,0 0,8
09.09.2019 11:00:00 14,1 12,5 28 15 - - S 1012,3 0,6
09.09.2019 10:00:00 13,9 11,3 18 10 - - W 1012,9 0,2
09.09.2019 09:00:00 14,5 11,8 35 19 46 25 WSW 1013,1 0,2

tt = temperature
td = dewpoint
ff = wind speed
fx = gusts
dd = wind direction
ppp = reduced air pressure
rr = precipitation

Next stations